sensor_id;sensor_type;location;lat;lon;timestamp;P1;durP1;ratioP1;P2;durP2;ratioP2
10617;SDS011;5356;43.526;26.534;2022-10-17T00:00:17;8.68;;;4.40;;
10617;SDS011;5356;43.526;26.534;2022-10-17T00:02:43;8.75;;;4.45;;
10617;SDS011;5356;43.526;26.534;2022-10-17T00:05:08;8.05;;;4.15;;
10617;SDS011;5356;43.526;26.534;2022-10-17T00:07:35;6.75;;;3.83;;
10617;SDS011;5356;43.526;26.534;2022-10-17T00:10:02;7.38;;;4.20;;
10617;SDS011;5356;43.526;26.534;2022-10-17T00:12:28;8.43;;;4.10;;
10617;SDS011;5356;43.526;26.534;2022-10-17T00:14:53;7.40;;;4.22;;
10617;SDS011;5356;43.526;26.534;2022-10-17T00:17:19;10.63;;;4.80;;
10617;SDS011;5356;43.526;26.534;2022-10-17T00:19:44;7.03;;;4.10;;
10617;SDS011;5356;43.526;26.534;2022-10-17T00:22:10;7.70;;;4.35;;
10617;SDS011;5356;43.526;26.534;2022-10-17T00:24:36;8.88;;;3.88;;
10617;SDS011;5356;43.526;26.534;2022-10-17T00:27:01;9.07;;;3.97;;
10617;SDS011;5356;43.526;26.534;2022-10-17T00:29:27;11.63;;;4.28;;
10617;SDS011;5356;43.526;26.534;2022-10-17T00:31:53;6.70;;;3.55;;
10617;SDS011;5356;43.526;26.534;2022-10-17T00:34:20;4.88;;;3.72;;
10617;SDS011;5356;43.526;26.534;2022-10-17T00:36:45;7.07;;;3.88;;
10617;SDS011;5356;43.526;26.534;2022-10-17T00:39:11;5.13;;;3.47;;
10617;SDS011;5356;43.526;26.534;2022-10-17T00:41:36;5.38;;;4.13;;
10617;SDS011;5356;43.526;26.534;2022-10-17T00:44:03;6.68;;;3.47;;
10617;SDS011;5356;43.526;26.534;2022-10-17T00:46:35;5.72;;;3.45;;
10617;SDS011;5356;43.526;26.534;2022-10-17T00:49:05;6.13;;;3.55;;
10617;SDS011;5356;43.526;26.534;2022-10-17T00:51:34;4.88;;;2.90;;
10617;SDS011;5356;43.526;26.534;2022-10-17T00:54:05;5.05;;;3.38;;
10617;SDS011;5356;43.526;26.534;2022-10-17T00:56:31;8.10;;;3.25;;
10617;SDS011;5356;43.526;26.534;2022-10-17T00:58:58;5.78;;;3.35;;
10617;SDS011;5356;43.526;26.534;2022-10-17T01:01:23;7.10;;;3.75;;
10617;SDS011;5356;43.526;26.534;2022-10-17T01:03:49;5.88;;;3.53;;
10617;SDS011;5356;43.526;26.534;2022-10-17T01:06:14;5.47;;;3.13;;
10617;SDS011;5356;43.526;26.534;2022-10-17T01:08:40;5.88;;;3.00;;
10617;SDS011;5356;43.526;26.534;2022-10-17T01:11:19;6.85;;;2.92;;
10617;SDS011;5356;43.526;26.534;2022-10-17T01:13:57;6.72;;;4.40;;
10617;SDS011;5356;43.526;26.534;2022-10-17T01:16:34;3.53;;;2.92;;
10617;SDS011;5356;43.526;26.534;2022-10-17T01:24:47;11.23;;;3.40;;
10617;SDS011;5356;43.526;26.534;2022-10-17T01:32:38;5.85;;;3.28;;
10617;SDS011;5356;43.526;26.534;2022-10-17T01:38:11;7.35;;;3.33;;
10617;SDS011;5356;43.526;26.534;2022-10-17T01:41:01;6.32;;;3.40;;
10617;SDS011;5356;43.526;26.534;2022-10-17T01:46:06;5.13;;;3.03;;
10617;SDS011;5356;43.526;26.534;2022-10-17T01:48:36;7.55;;;3.38;;
10617;SDS011;5356;43.526;26.534;2022-10-17T01:51:50;6.63;;;3.15;;
10617;SDS011;5356;43.526;26.534;2022-10-17T01:54:10;5.70;;;3.20;;
10617;SDS011;5356;43.526;26.534;2022-10-17T01:56:42;11.18;;;4.38;;
10617;SDS011;5356;43.526;26.534;2022-10-17T01:59:11;8.82;;;3.80;;
10617;SDS011;5356;43.526;26.534;2022-10-17T02:01:46;9.10;;;4.18;;
10617;SDS011;5356;43.526;26.534;2022-10-17T02:04:14;7.15;;;3.20;;
10617;SDS011;5356;43.526;26.534;2022-10-17T02:06:40;7.97;;;3.80;;
10617;SDS011;5356;43.526;26.534;2022-10-17T02:19:54;5.13;;;3.60;;
10617;SDS011;5356;43.526;26.534;2022-10-17T02:28:06;6.53;;;3.70;;
10617;SDS011;5356;43.526;26.534;2022-10-17T02:30:38;6.05;;;3.78;;
10617;SDS011;5356;43.526;26.534;2022-10-17T02:33:16;7.97;;;3.72;;
10617;SDS011;5356;43.526;26.534;2022-10-17T02:35:49;6.78;;;3.65;;
10617;SDS011;5356;43.526;26.534;2022-10-17T02:38:18;6.50;;;2.72;;
10617;SDS011;5356;43.526;26.534;2022-10-17T02:40:45;5.95;;;3.05;;
10617;SDS011;5356;43.526;26.534;2022-10-17T02:43:14;9.05;;;3.40;;
10617;SDS011;5356;43.526;26.534;2022-10-17T02:45:39;4.55;;;3.28;;
10617;SDS011;5356;43.526;26.534;2022-10-17T02:48:08;4.15;;;2.80;;
10617;SDS011;5356;43.526;26.534;2022-10-17T02:54:11;7.40;;;3.00;;
10617;SDS011;5356;43.526;26.534;2022-10-17T02:56:21;4.10;;;2.92;;
10617;SDS011;5356;43.526;26.534;2022-10-17T02:58:52;7.75;;;3.65;;
10617;SDS011;5356;43.526;26.534;2022-10-17T03:01:20;5.93;;;3.25;;
10617;SDS011;5356;43.526;26.534;2022-10-17T03:03:46;5.78;;;2.97;;
10617;SDS011;5356;43.526;26.534;2022-10-17T03:06:11;4.03;;;3.20;;
10617;SDS011;5356;43.526;26.534;2022-10-17T03:08:37;3.40;;;2.70;;
10617;SDS011;5356;43.526;26.534;2022-10-17T03:11:02;5.32;;;3.17;;
10617;SDS011;5356;43.526;26.534;2022-10-17T03:13:28;5.00;;;3.33;;
10617;SDS011;5356;43.526;26.534;2022-10-17T03:15:55;6.07;;;3.83;;
10617;SDS011;5356;43.526;26.534;2022-10-17T03:18:21;6.18;;;3.67;;
10617;SDS011;5356;43.526;26.534;2022-10-17T03:20:46;6.47;;;3.38;;
10617;SDS011;5356;43.526;26.534;2022-10-17T03:23:12;8.18;;;3.80;;
10617;SDS011;5356;43.526;26.534;2022-10-17T03:25:38;6.18;;;3.47;;
10617;SDS011;5356;43.526;26.534;2022-10-17T03:28:04;6.88;;;4.72;;
10617;SDS011;5356;43.526;26.534;2022-10-17T03:30:30;7.20;;;4.10;;
10617;SDS011;5356;43.526;26.534;2022-10-17T03:32:56;4.88;;;3.72;;
10617;SDS011;5356;43.526;26.534;2022-10-17T03:35:22;5.63;;;3.92;;
10617;SDS011;5356;43.526;26.534;2022-10-17T03:37:48;5.50;;;4.00;;
10617;SDS011;5356;43.526;26.534;2022-10-17T03:40:13;7.03;;;3.92;;
10617;SDS011;5356;43.526;26.534;2022-10-17T03:42:39;6.47;;;3.83;;
10617;SDS011;5356;43.526;26.534;2022-10-17T03:45:04;7.07;;;3.78;;
10617;SDS011;5356;43.526;26.534;2022-10-17T03:47:30;5.93;;;3.67;;
10617;SDS011;5356;43.526;26.534;2022-10-17T03:49:56;5.40;;;3.08;;
10617;SDS011;5356;43.526;26.534;2022-10-17T03:52:21;5.57;;;3.00;;
10617;SDS011;5356;43.526;26.534;2022-10-17T03:54:48;6.20;;;2.97;;
10617;SDS011;5356;43.526;26.534;2022-10-17T03:57:14;6.95;;;3.58;;
10617;SDS011;5356;43.526;26.534;2022-10-17T03:59:39;8.80;;;3.97;;
10617;SDS011;5356;43.526;26.534;2022-10-17T04:02:05;6.10;;;3.78;;
10617;SDS011;5356;43.526;26.534;2022-10-17T04:04:30;8.43;;;4.20;;
10617;SDS011;5356;43.526;26.534;2022-10-17T04:06:56;5.13;;;3.80;;
10617;SDS011;5356;43.526;26.534;2022-10-17T04:09:21;7.03;;;3.80;;
10617;SDS011;5356;43.526;26.534;2022-10-17T04:11:47;7.78;;;4.13;;
10617;SDS011;5356;43.526;26.534;2022-10-17T04:14:12;6.55;;;3.88;;
10617;SDS011;5356;43.526;26.534;2022-10-17T04:16:38;9.27;;;4.30;;
10617;SDS011;5356;43.526;26.534;2022-10-17T04:19:04;10.73;;;5.50;;
10617;SDS011;5356;43.526;26.534;2022-10-17T04:21:29;20.15;;;6.22;;
10617;SDS011;5356;43.526;26.534;2022-10-17T04:23:55;12.95;;;6.85;;
10617;SDS011;5356;43.526;26.534;2022-10-17T04:26:24;17.05;;;6.72;;
10617;SDS011;5356;43.526;26.534;2022-10-17T04:28:51;9.13;;;5.50;;
10617;SDS011;5356;43.526;26.534;2022-10-17T04:31:16;13.50;;;6.10;;
10617;SDS011;5356;43.526;26.534;2022-10-17T04:33:45;12.82;;;6.55;;
10617;SDS011;5356;43.526;26.534;2022-10-17T04:36:15;13.52;;;6.45;;
10617;SDS011;5356;43.526;26.534;2022-10-17T04:38:42;7.90;;;5.32;;
10617;SDS011;5356;43.526;26.534;2022-10-17T04:41:09;12.88;;;5.75;;
10617;SDS011;5356;43.526;26.534;2022-10-17T04:43:37;9.07;;;5.40;;
10617;SDS011;5356;43.526;26.534;2022-10-17T04:46:04;8.05;;;4.20;;
10617;SDS011;5356;43.526;26.534;2022-10-17T04:48:32;7.95;;;4.15;;
10617;SDS011;5356;43.526;26.534;2022-10-17T04:50:59;7.53;;;4.38;;
10617;SDS011;5356;43.526;26.534;2022-10-17T04:53:27;9.07;;;4.57;;
10617;SDS011;5356;43.526;26.534;2022-10-17T04:55:55;8.73;;;4.57;;
10617;SDS011;5356;43.526;26.534;2022-10-17T04:58:20;7.30;;;4.60;;
10617;SDS011;5356;43.526;26.534;2022-10-17T05:00:46;19.98;;;6.53;;
10617;SDS011;5356;43.526;26.534;2022-10-17T05:03:12;14.80;;;6.45;;
10617;SDS011;5356;43.526;26.534;2022-10-17T05:05:37;15.90;;;6.85;;
10617;SDS011;5356;43.526;26.534;2022-10-17T05:08:04;15.80;;;6.18;;
10617;SDS011;5356;43.526;26.534;2022-10-17T05:10:34;11.90;;;6.38;;
10617;SDS011;5356;43.526;26.534;2022-10-17T05:13:01;16.80;;;7.10;;
10617;SDS011;5356;43.526;26.534;2022-10-17T05:15:27;10.65;;;5.97;;
10617;SDS011;5356;43.526;26.534;2022-10-17T05:17:55;9.65;;;6.57;;
10617;SDS011;5356;43.526;26.534;2022-10-17T05:20:21;10.43;;;5.65;;
10617;SDS011;5356;43.526;26.534;2022-10-17T05:22:48;13.73;;;6.50;;
10617;SDS011;5356;43.526;26.534;2022-10-17T05:25:13;9.95;;;5.45;;
10617;SDS011;5356;43.526;26.534;2022-10-17T05:27:39;13.27;;;5.05;;
10617;SDS011;5356;43.526;26.534;2022-10-17T05:30:04;11.23;;;5.20;;
10617;SDS011;5356;43.526;26.534;2022-10-17T05:32:30;7.55;;;4.63;;
10617;SDS011;5356;43.526;26.534;2022-10-17T05:34:56;10.00;;;4.97;;
10617;SDS011;5356;43.526;26.534;2022-10-17T05:37:21;6.93;;;4.63;;
10617;SDS011;5356;43.526;26.534;2022-10-17T05:39:47;8.75;;;5.68;;
10617;SDS011;5356;43.526;26.534;2022-10-17T05:42:12;13.85;;;4.65;;
10617;SDS011;5356;43.526;26.534;2022-10-17T05:44:38;9.98;;;5.22;;
10617;SDS011;5356;43.526;26.534;2022-10-17T05:47:05;10.45;;;5.28;;
10617;SDS011;5356;43.526;26.534;2022-10-17T05:49:31;11.88;;;4.57;;
10617;SDS011;5356;43.526;26.534;2022-10-17T05:51:57;9.38;;;4.95;;
10617;SDS011;5356;43.526;26.534;2022-10-17T05:54:22;7.35;;;4.40;;
10617;SDS011;5356;43.526;26.534;2022-10-17T05:56:51;10.73;;;5.72;;
10617;SDS011;5356;43.526;26.534;2022-10-17T05:59:17;7.47;;;4.32;;
10617;SDS011;5356;43.526;26.534;2022-10-17T06:01:43;12.18;;;6.72;;
10617;SDS011;5356;43.526;26.534;2022-10-17T06:04:08;12.93;;;6.60;;
10617;SDS011;5356;43.526;26.534;2022-10-17T06:06:37;11.23;;;6.40;;
10617;SDS011;5356;43.526;26.534;2022-10-17T06:09:03;10.15;;;6.28;;
10617;SDS011;5356;43.526;26.534;2022-10-17T06:11:29;13.48;;;7.03;;
10617;SDS011;5356;43.526;26.534;2022-10-17T06:13:55;14.05;;;6.65;;
10617;SDS011;5356;43.526;26.534;2022-10-17T06:16:20;12.93;;;6.07;;
10617;SDS011;5356;43.526;26.534;2022-10-17T06:18:46;11.35;;;5.95;;
10617;SDS011;5356;43.526;26.534;2022-10-17T06:21:11;14.50;;;6.88;;
10617;SDS011;5356;43.526;26.534;2022-10-17T06:23:40;12.07;;;6.32;;
10617;SDS011;5356;43.526;26.534;2022-10-17T06:26:05;12.65;;;6.40;;
10617;SDS011;5356;43.526;26.534;2022-10-17T06:28:31;9.80;;;6.15;;
10617;SDS011;5356;43.526;26.534;2022-10-17T06:30:58;14.38;;;6.25;;
10617;SDS011;5356;43.526;26.534;2022-10-17T06:33:23;14.70;;;6.43;;
10617;SDS011;5356;43.526;26.534;2022-10-17T06:35:52;14.40;;;6.63;;
10617;SDS011;5356;43.526;26.534;2022-10-17T06:38:18;11.77;;;6.30;;
10617;SDS011;5356;43.526;26.534;2022-10-17T06:40:44;8.05;;;5.15;;
10617;SDS011;5356;43.526;26.534;2022-10-17T06:43:10;10.15;;;5.85;;
10617;SDS011;5356;43.526;26.534;2022-10-17T06:45:37;10.90;;;5.53;;
10617;SDS011;5356;43.526;26.534;2022-10-17T06:48:03;10.57;;;5.90;;
10617;SDS011;5356;43.526;26.534;2022-10-17T06:50:29;13.77;;;7.38;;
10617;SDS011;5356;43.526;26.534;2022-10-17T06:52:54;13.52;;;6.88;;
10617;SDS011;5356;43.526;26.534;2022-10-17T06:55:20;12.75;;;6.63;;
10617;SDS011;5356;43.526;26.534;2022-10-17T06:57:45;10.55;;;7.25;;
10617;SDS011;5356;43.526;26.534;2022-10-17T07:00:11;13.05;;;7.20;;
10617;SDS011;5356;43.526;26.534;2022-10-17T07:02:37;16.45;;;7.28;;
10617;SDS011;5356;43.526;26.534;2022-10-17T07:05:02;12.75;;;7.47;;
10617;SDS011;5356;43.526;26.534;2022-10-17T07:07:31;19.48;;;8.70;;
10617;SDS011;5356;43.526;26.534;2022-10-17T07:09:57;22.60;;;10.45;;
10617;SDS011;5356;43.526;26.534;2022-10-17T07:12:22;21.60;;;8.60;;
10617;SDS011;5356;43.526;26.534;2022-10-17T07:14:48;13.52;;;7.68;;
10617;SDS011;5356;43.526;26.534;2022-10-17T07:17:15;20.15;;;8.13;;
10617;SDS011;5356;43.526;26.534;2022-10-17T07:19:42;11.50;;;7.57;;
10617;SDS011;5356;43.526;26.534;2022-10-17T07:22:08;11.45;;;6.78;;
10617;SDS011;5356;43.526;26.534;2022-10-17T07:24:34;9.07;;;5.60;;
10617;SDS011;5356;43.526;26.534;2022-10-17T07:26:59;11.18;;;7.53;;
10617;SDS011;5356;43.526;26.534;2022-10-17T07:29:25;16.25;;;6.82;;
10617;SDS011;5356;43.526;26.534;2022-10-17T07:31:51;11.48;;;6.97;;
10617;SDS011;5356;43.526;26.534;2022-10-17T07:34:17;11.13;;;6.63;;
10617;SDS011;5356;43.526;26.534;2022-10-17T07:36:42;12.23;;;6.82;;
10617;SDS011;5356;43.526;26.534;2022-10-17T07:39:08;9.88;;;6.80;;
10617;SDS011;5356;43.526;26.534;2022-10-17T07:41:33;12.07;;;7.22;;
10617;SDS011;5356;43.526;26.534;2022-10-17T07:43:59;11.55;;;5.95;;
10617;SDS011;5356;43.526;26.534;2022-10-17T07:46:24;11.75;;;7.68;;
10617;SDS011;5356;43.526;26.534;2022-10-17T07:48:50;12.15;;;6.47;;
10617;SDS011;5356;43.526;26.534;2022-10-17T07:51:15;15.13;;;7.65;;
10617;SDS011;5356;43.526;26.534;2022-10-17T07:53:42;12.70;;;6.40;;
10617;SDS011;5356;43.526;26.534;2022-10-17T07:56:08;13.95;;;7.05;;
10617;SDS011;5356;43.526;26.534;2022-10-17T07:58:35;11.25;;;6.35;;
10617;SDS011;5356;43.526;26.534;2022-10-17T08:01:02;11.13;;;6.35;;
10617;SDS011;5356;43.526;26.534;2022-10-17T08:03:29;9.45;;;5.72;;
10617;SDS011;5356;43.526;26.534;2022-10-17T08:05:57;14.32;;;6.13;;
10617;SDS011;5356;43.526;26.534;2022-10-17T08:08:27;10.43;;;6.10;;
10617;SDS011;5356;43.526;26.534;2022-10-17T08:10:53;17.38;;;7.00;;
10617;SDS011;5356;43.526;26.534;2022-10-17T08:13:20;5.70;;;4.57;;
10617;SDS011;5356;43.526;26.534;2022-10-17T08:15:46;6.85;;;4.70;;
10617;SDS011;5356;43.526;26.534;2022-10-17T08:18:13;8.70;;;4.50;;
10617;SDS011;5356;43.526;26.534;2022-10-17T08:20:39;10.25;;;4.57;;
10617;SDS011;5356;43.526;26.534;2022-10-17T08:23:06;6.38;;;3.45;;
10617;SDS011;5356;43.526;26.534;2022-10-17T08:25:31;16.45;;;7.13;;
10617;SDS011;5356;43.526;26.534;2022-10-17T08:31:19;4.75;;;2.30;;
10617;SDS011;5356;43.526;26.534;2022-10-17T08:33:45;3.75;;;1.80;;
10617;SDS011;5356;43.526;26.534;2022-10-17T08:36:13;5.43;;;2.33;;
10617;SDS011;5356;43.526;26.534;2022-10-17T08:38:40;16.80;;;6.43;;
10617;SDS011;5356;43.526;26.534;2022-10-17T08:41:14;5.20;;;2.95;;
10617;SDS011;5356;43.526;26.534;2022-10-17T08:46:15;8.65;;;2.50;;
10617;SDS011;5356;43.526;26.534;2022-10-17T08:48:42;3.70;;;2.40;;
10617;SDS011;5356;43.526;26.534;2022-10-17T08:51:11;5.97;;;2.20;;
10617;SDS011;5356;43.526;26.534;2022-10-17T08:53:51;3.22;;;2.40;;
10617;SDS011;5356;43.526;26.534;2022-10-17T08:56:23;4.13;;;2.10;;
10617;SDS011;5356;43.526;26.534;2022-10-17T08:58:50;4.40;;;3.10;;
10617;SDS011;5356;43.526;26.534;2022-10-17T09:06:36;6.13;;;2.30;;
10617;SDS011;5356;43.526;26.534;2022-10-17T09:20:03;5.05;;;3.38;;
10617;SDS011;5356;43.526;26.534;2022-10-17T09:22:37;2.90;;;2.10;;
10617;SDS011;5356;43.526;26.534;2022-10-17T09:25:17;4.85;;;2.55;;
10617;SDS011;5356;43.526;26.534;2022-10-17T09:27:49;5.95;;;2.70;;
10617;SDS011;5356;43.526;26.534;2022-10-17T09:32:46;3.72;;;2.35;;
10617;SDS011;5356;43.526;26.534;2022-10-17T09:35:12;11.88;;;4.20;;
10617;SDS011;5356;43.526;26.534;2022-10-17T09:37:39;4.97;;;2.50;;
10617;SDS011;5356;43.526;26.534;2022-10-17T09:40:05;6.80;;;2.70;;
10617;SDS011;5356;43.526;26.534;2022-10-17T09:42:40;3.80;;;2.55;;
10617;SDS011;5356;43.526;26.534;2022-10-17T09:45:19;5.35;;;2.53;;
10617;SDS011;5356;43.526;26.534;2022-10-17T09:47:54;3.53;;;2.42;;
10617;SDS011;5356;43.526;26.534;2022-10-17T09:50:32;5.93;;;3.00;;
10617;SDS011;5356;43.526;26.534;2022-10-17T09:53:05;3.55;;;2.20;;
10617;SDS011;5356;43.526;26.534;2022-10-17T09:55:40;3.88;;;2.95;;
10617;SDS011;5356;43.526;26.534;2022-10-17T09:58:08;5.45;;;3.05;;
10617;SDS011;5356;43.526;26.534;2022-10-17T10:00:35;7.70;;;2.70;;
10617;SDS011;5356;43.526;26.534;2022-10-17T10:03:16;4.00;;;2.50;;
10617;SDS011;5356;43.526;26.534;2022-10-17T10:08:46;2.70;;;2.50;;
10617;SDS011;5356;43.526;26.534;2022-10-17T10:11:13;2.70;;;1.83;;
10617;SDS011;5356;43.526;26.534;2022-10-17T10:13:39;3.13;;;1.88;;
10617;SDS011;5356;43.526;26.534;2022-10-17T10:16:17;6.82;;;2.88;;
10617;SDS011;5356;43.526;26.534;2022-10-17T10:18:48;3.95;;;2.40;;
10617;SDS011;5356;43.526;26.534;2022-10-17T10:21:16;5.10;;;2.60;;
10617;SDS011;5356;43.526;26.534;2022-10-17T10:26:32;6.07;;;2.88;;
10617;SDS011;5356;43.526;26.534;2022-10-17T10:29:05;10.25;;;3.97;;
10617;SDS011;5356;43.526;26.534;2022-10-17T10:31:44;4.78;;;2.35;;
10617;SDS011;5356;43.526;26.534;2022-10-17T10:34:15;4.00;;;2.35;;
10617;SDS011;5356;43.526;26.534;2022-10-17T10:39:15;2.88;;;2.20;;
10617;SDS011;5356;43.526;26.534;2022-10-17T10:41:56;3.72;;;2.22;;
10617;SDS011;5356;43.526;26.534;2022-10-17T10:44:23;3.38;;;2.67;;
10617;SDS011;5356;43.526;26.534;2022-10-17T10:49:40;6.93;;;2.50;;
10617;SDS011;5356;43.526;26.534;2022-10-17T10:52:07;4.85;;;2.90;;
10617;SDS011;5356;43.526;26.534;2022-10-17T10:54:41;4.05;;;2.53;;
10617;SDS011;5356;43.526;26.534;2022-10-17T10:57:12;3.63;;;2.33;;
10617;SDS011;5356;43.526;26.534;2022-10-17T11:02:35;3.15;;;2.38;;
10617;SDS011;5356;43.526;26.534;2022-10-17T11:07:49;2.53;;;2.33;;
10617;SDS011;5356;43.526;26.534;2022-10-17T11:16:00;7.90;;;2.33;;
10617;SDS011;5356;43.526;26.534;2022-10-17T11:18:54;2.65;;;2.17;;
10617;SDS011;5356;43.526;26.534;2022-10-17T11:21:31;2.55;;;1.77;;
10617;SDS011;5356;43.526;26.534;2022-10-17T11:24:06;10.18;;;3.78;;
10617;SDS011;5356;43.526;26.534;2022-10-17T11:26:44;6.75;;;3.33;;
10617;SDS011;5356;43.526;26.534;2022-10-17T11:29:14;4.18;;;2.83;;
10617;SDS011;5356;43.526;26.534;2022-10-17T11:31:47;2.55;;;2.35;;
10617;SDS011;5356;43.526;26.534;2022-10-17T11:34:22;4.60;;;2.65;;
10617;SDS011;5356;43.526;26.534;2022-10-17T11:36:51;4.55;;;2.53;;
10617;SDS011;5356;43.526;26.534;2022-10-17T11:39:26;3.58;;;2.33;;
10617;SDS011;5356;43.526;26.534;2022-10-17T11:42:05;7.75;;;3.10;;
10617;SDS011;5356;43.526;26.534;2022-10-17T11:49:46;3.70;;;2.17;;
10617;SDS011;5356;43.526;26.534;2022-10-17T11:52:21;3.28;;;2.25;;
10617;SDS011;5356;43.526;26.534;2022-10-17T11:54:55;12.40;;;4.97;;
10617;SDS011;5356;43.526;26.534;2022-10-17T11:57:33;5.75;;;2.55;;
10617;SDS011;5356;43.526;26.534;2022-10-17T12:05:23;5.07;;;2.80;;
10617;SDS011;5356;43.526;26.534;2022-10-17T12:07:58;11.27;;;3.35;;
10617;SDS011;5356;43.526;26.534;2022-10-17T12:10:36;2.67;;;1.90;;
10617;SDS011;5356;43.526;26.534;2022-10-17T12:15:56;2.53;;;2.00;;
10617;SDS011;5356;43.526;26.534;2022-10-17T12:18:47;2.90;;;1.77;;
10617;SDS011;5356;43.526;26.534;2022-10-17T12:21:14;2.33;;;1.63;;
10617;SDS011;5356;43.526;26.534;2022-10-17T12:23:40;1.95;;;1.73;;
10617;SDS011;5356;43.526;26.534;2022-10-17T12:26:24;4.40;;;2.38;;
10617;SDS011;5356;43.526;26.534;2022-10-17T12:28:51;4.45;;;1.85;;
10617;SDS011;5356;43.526;26.534;2022-10-17T12:33:47;2.33;;;1.55;;
10617;SDS011;5356;43.526;26.534;2022-10-17T12:38:41;4.38;;;2.50;;
10617;SDS011;5356;43.526;26.534;2022-10-17T12:41:07;9.85;;;4.00;;
10617;SDS011;5356;43.526;26.534;2022-10-17T12:43:52;5.97;;;2.78;;
10617;SDS011;5356;43.526;26.534;2022-10-17T12:49:18;4.90;;;2.20;;
10617;SDS011;5356;43.526;26.534;2022-10-17T12:54:38;11.50;;;4.85;;
10617;SDS011;5356;43.526;26.534;2022-10-17T12:59:54;6.03;;;2.60;;
10617;SDS011;5356;43.526;26.534;2022-10-17T13:02:20;4.55;;;2.25;;
10617;SDS011;5356;43.526;26.534;2022-10-17T13:04:54;2.50;;;2.10;;
10617;SDS011;5356;43.526;26.534;2022-10-17T13:07:29;5.75;;;2.05;;
10617;SDS011;5356;43.526;26.534;2022-10-17T13:09:54;4.90;;;3.00;;
10617;SDS011;5356;43.526;26.534;2022-10-17T13:12:23;4.95;;;2.35;;
10617;SDS011;5356;43.526;26.534;2022-10-17T13:14:51;2.70;;;1.85;;
10617;SDS011;5356;43.526;26.534;2022-10-17T13:17:25;6.50;;;2.50;;
10617;SDS011;5356;43.526;26.534;2022-10-17T13:19:55;3.53;;;2.03;;
10617;SDS011;5356;43.526;26.534;2022-10-17T13:22:22;3.85;;;1.40;;
10617;SDS011;5356;43.526;26.534;2022-10-17T13:24:49;3.10;;;1.80;;
10617;SDS011;5356;43.526;26.534;2022-10-17T13:29:52;2.22;;;1.65;;
10617;SDS011;5356;43.526;26.534;2022-10-17T13:32:20;2.75;;;1.95;;
10617;SDS011;5356;43.526;26.534;2022-10-17T13:34:58;5.78;;;2.58;;
10617;SDS011;5356;43.526;26.534;2022-10-17T13:37:32;4.25;;;2.42;;
10617;SDS011;5356;43.526;26.534;2022-10-17T13:39:59;7.30;;;3.20;;
10617;SDS011;5356;43.526;26.534;2022-10-17T13:42:26;4.85;;;2.47;;
10617;SDS011;5356;43.526;26.534;2022-10-17T13:44:54;2.10;;;1.83;;
10617;SDS011;5356;43.526;26.534;2022-10-17T13:47:26;2.05;;;1.85;;
10617;SDS011;5356;43.526;26.534;2022-10-17T13:49:53;3.70;;;1.80;;
10617;SDS011;5356;43.526;26.534;2022-10-17T13:52:21;9.80;;;3.47;;
10617;SDS011;5356;43.526;26.534;2022-10-17T13:54:49;1.83;;;1.58;;
10617;SDS011;5356;43.526;26.534;2022-10-17T13:57:18;3.45;;;2.78;;
10617;SDS011;5356;43.526;26.534;2022-10-17T13:59:47;2.78;;;1.95;;
10617;SDS011;5356;43.526;26.534;2022-10-17T14:02:22;3.13;;;2.10;;
10617;SDS011;5356;43.526;26.534;2022-10-17T14:10:29;3.65;;;1.92;;
10617;SDS011;5356;43.526;26.534;2022-10-17T14:12:55;2.88;;;2.22;;
10617;SDS011;5356;43.526;26.534;2022-10-17T14:15:23;5.30;;;2.45;;
10617;SDS011;5356;43.526;26.534;2022-10-17T14:17:55;8.25;;;4.03;;
10617;SDS011;5356;43.526;26.534;2022-10-17T14:20:23;2.80;;;1.80;;
10617;SDS011;5356;43.526;26.534;2022-10-17T14:22:49;4.00;;;2.25;;
10617;SDS011;5356;43.526;26.534;2022-10-17T14:30:36;5.30;;;2.33;;
10617;SDS011;5356;43.526;26.534;2022-10-17T14:33:14;4.60;;;2.20;;
10617;SDS011;5356;43.526;26.534;2022-10-17T14:35:50;2.75;;;2.22;;
10617;SDS011;5356;43.526;26.534;2022-10-17T14:38:16;5.15;;;1.95;;
10617;SDS011;5356;43.526;26.534;2022-10-17T14:40:50;2.40;;;1.88;;
10617;SDS011;5356;43.526;26.534;2022-10-17T14:43:32;5.88;;;2.40;;
10617;SDS011;5356;43.526;26.534;2022-10-17T14:45:59;4.63;;;2.00;;
10617;SDS011;5356;43.526;26.534;2022-10-17T14:48:25;4.43;;;2.10;;
10617;SDS011;5356;43.526;26.534;2022-10-17T14:51:09;4.88;;;2.13;;
10617;SDS011;5356;43.526;26.534;2022-10-17T14:53:40;4.43;;;1.90;;
10617;SDS011;5356;43.526;26.534;2022-10-17T14:56:23;10.20;;;3.45;;
10617;SDS011;5356;43.526;26.534;2022-10-17T14:58:50;3.63;;;2.20;;
10617;SDS011;5356;43.526;26.534;2022-10-17T15:01:16;5.70;;;2.55;;
10617;SDS011;5356;43.526;26.534;2022-10-17T15:03:42;9.13;;;2.50;;
10617;SDS011;5356;43.526;26.534;2022-10-17T15:06:14;4.05;;;2.28;;
10617;SDS011;5356;43.526;26.534;2022-10-17T15:08:44;7.07;;;2.38;;
10617;SDS011;5356;43.526;26.534;2022-10-17T15:11:09;5.78;;;2.70;;
10617;SDS011;5356;43.526;26.534;2022-10-17T15:13:36;8.43;;;3.10;;
10617;SDS011;5356;43.526;26.534;2022-10-17T15:16:05;5.35;;;3.70;;
10617;SDS011;5356;43.526;26.534;2022-10-17T15:18:37;7.45;;;3.83;;
10617;SDS011;5356;43.526;26.534;2022-10-17T15:21:07;5.78;;;3.65;;
10617;SDS011;5356;43.526;26.534;2022-10-17T15:23:36;4.18;;;3.50;;
10617;SDS011;5356;43.526;26.534;2022-10-17T15:26:02;6.00;;;4.38;;
10617;SDS011;5356;43.526;26.534;2022-10-17T15:28:28;4.13;;;3.10;;
10617;SDS011;5356;43.526;26.534;2022-10-17T15:30:53;7.18;;;3.55;;
10617;SDS011;5356;43.526;26.534;2022-10-17T15:33:18;9.30;;;4.15;;
10617;SDS011;5356;43.526;26.534;2022-10-17T15:35:44;8.68;;;4.30;;
10617;SDS011;5356;43.526;26.534;2022-10-17T15:38:10;10.35;;;5.82;;
10617;SDS011;5356;43.526;26.534;2022-10-17T15:40:41;6.28;;;3.75;;
10617;SDS011;5356;43.526;26.534;2022-10-17T15:43:07;10.82;;;4.28;;
10617;SDS011;5356;43.526;26.534;2022-10-17T15:45:33;11.27;;;4.13;;
10617;SDS011;5356;43.526;26.534;2022-10-17T15:48:03;7.40;;;3.47;;
10617;SDS011;5356;43.526;26.534;2022-10-17T15:50:30;7.45;;;3.80;;
10617;SDS011;5356;43.526;26.534;2022-10-17T15:52:57;14.75;;;4.60;;
10617;SDS011;5356;43.526;26.534;2022-10-17T15:55:23;4.78;;;3.20;;
10617;SDS011;5356;43.526;26.534;2022-10-17T15:57:49;4.85;;;3.20;;
10617;SDS011;5356;43.526;26.534;2022-10-17T16:00:18;6.88;;;3.25;;
10617;SDS011;5356;43.526;26.534;2022-10-17T16:02:47;7.35;;;2.97;;
10617;SDS011;5356;43.526;26.534;2022-10-17T16:05:14;4.57;;;2.63;;
10617;SDS011;5356;43.526;26.534;2022-10-17T16:07:42;6.28;;;2.47;;
10617;SDS011;5356;43.526;26.534;2022-10-17T16:10:11;10.45;;;3.42;;
10617;SDS011;5356;43.526;26.534;2022-10-17T16:12:37;15.60;;;8.55;;
10617;SDS011;5356;43.526;26.534;2022-10-17T16:15:12;21.38;;;12.48;;
10617;SDS011;5356;43.526;26.534;2022-10-17T16:17:39;29.63;;;14.00;;
10617;SDS011;5356;43.526;26.534;2022-10-17T16:20:05;17.95;;;10.15;;
10617;SDS011;5356;43.526;26.534;2022-10-17T16:22:32;15.45;;;9.57;;
10617;SDS011;5356;43.526;26.534;2022-10-17T16:25:02;17.10;;;9.43;;
10617;SDS011;5356;43.526;26.534;2022-10-17T16:27:34;14.48;;;8.25;;
10617;SDS011;5356;43.526;26.534;2022-10-17T16:30:01;12.85;;;6.35;;
10617;SDS011;5356;43.526;26.534;2022-10-17T16:32:28;8.95;;;6.07;;
10617;SDS011;5356;43.526;26.534;2022-10-17T16:34:53;15.77;;;7.05;;
10617;SDS011;5356;43.526;26.534;2022-10-17T16:37:18;18.73;;;10.15;;
10617;SDS011;5356;43.526;26.534;2022-10-17T16:39:44;18.10;;;10.90;;
10617;SDS011;5356;43.526;26.534;2022-10-17T16:42:16;15.75;;;9.52;;
10617;SDS011;5356;43.526;26.534;2022-10-17T16:44:42;20.55;;;10.07;;
10617;SDS011;5356;43.526;26.534;2022-10-17T16:47:07;15.52;;;9.85;;
10617;SDS011;5356;43.526;26.534;2022-10-17T16:49:33;14.20;;;9.93;;
10617;SDS011;5356;43.526;26.534;2022-10-17T16:51:58;10.82;;;8.65;;
10617;SDS011;5356;43.526;26.534;2022-10-17T16:54:23;12.93;;;7.20;;